createdAt,value
2022-12-05T00:00:56.793Z,27
2022-12-05T00:06:03.798Z,26.6
2022-12-05T00:11:26.729Z,26.3
2022-12-05T00:16:49.488Z,26
2022-12-05T00:22:27.308Z,25.8
2022-12-05T00:28:04.917Z,25.6
2022-12-05T00:33:27.079Z,25.7
2022-12-05T00:39:03.448Z,26
2022-12-05T00:44:48.943Z,26.4
2022-12-05T00:50:12.273Z,26.2
2022-12-05T00:55:49.460Z,25.8
2022-12-05T01:01:27.965Z,25.4
2022-12-05T01:06:50.954Z,25.3
2022-12-05T01:12:32.186Z,25.3
2022-12-05T01:17:39.671Z,25.7
2022-12-05T01:23:17.405Z,26.1
2022-12-05T01:28:39.917Z,26
2022-12-05T01:34:18.511Z,25.6
2022-12-05T01:39:40.982Z,25.2
2022-12-05T01:45:07.632Z,25
2022-12-05T01:50:30.596Z,24.8
2022-12-05T01:55:53.376Z,25
2022-12-05T02:01:30.731Z,25.4
2022-12-05T02:06:54.196Z,25.8
2022-12-05T02:12:16.737Z,25.6
2022-12-05T02:17:41.491Z,25.3
2022-12-05T02:23:19.404Z,24.9
2022-12-05T02:28:56.769Z,24.7
2022-12-05T02:34:18.639Z,24.8
2022-12-05T02:39:56.271Z,25.1
2022-12-05T02:45:34.034Z,25.6
2022-12-05T02:51:11.931Z,25.5
2022-12-05T02:56:49.871Z,25.1
2022-12-05T03:02:27.533Z,24.8
2022-12-05T03:08:05.439Z,24.6
2022-12-05T03:13:28.069Z,24.6
2022-12-05T03:19:06.317Z,24.9
2022-12-05T03:24:44.325Z,25.5
2022-12-05T03:30:06.861Z,25.4
2022-12-05T03:35:44.425Z,25
2022-12-05T03:41:06.915Z,24.7
2022-12-05T03:46:46.376Z,24.4
2022-12-05T03:52:08.281Z,24.4
2022-12-05T03:58:21.264Z,24.8
2022-12-05T04:03:43.619Z,25.4
2022-12-05T04:09:22.072Z,25.4
2022-12-05T04:15:00.003Z,25
2022-12-05T04:20:39.438Z,24.6
2022-12-05T04:25:46.701Z,24.4
2022-12-05T04:31:09.294Z,24.3
2022-12-05T04:36:32.315Z,24.4
2022-12-05T04:41:45.019Z,24.8
2022-12-05T04:46:36.044Z,25.3
2022-12-05T04:52:20.020Z,25.4
2022-12-05T04:57:48.050Z,24.9
2022-12-05T05:03:26.002Z,24.6
2022-12-05T05:09:09.708Z,24.3
2022-12-05T05:14:48.959Z,24
2022-12-05T05:20:26.292Z,24.4
2022-12-05T05:26:04.291Z,24.8
2022-12-05T05:31:29.011Z,24.7
2022-12-05T05:37:12.032Z,24.3
2022-12-05T05:42:56.765Z,24
2022-12-05T05:48:34.535Z,23.8
2022-12-05T05:54:18.818Z,23.6
2022-12-05T05:59:50.790Z,23.5
2022-12-05T06:05:14.879Z,23.9
2022-12-05T06:10:57.776Z,24.4
2022-12-05T06:16:35.634Z,24.6
2022-12-05T06:22:19.843Z,24.3
2022-12-05T06:27:57.333Z,23.9
2022-12-05T06:33:40.345Z,23.6
2022-12-05T06:39:18.042Z,23.5
2022-12-05T06:44:55.744Z,23.3
2022-12-05T06:50:23.172Z,23.6
2022-12-05T06:56:00.874Z,24
2022-12-05T07:01:39.567Z,24.5
2022-12-05T07:07:23.948Z,24.1
2022-12-05T07:13:02.245Z,23.8
2022-12-05T07:19:05.784Z,23.6
2022-12-05T07:25:18.062Z,23.4
2022-12-05T07:31:02.955Z,23.3
2022-12-05T07:36:25.095Z,23.4
2022-12-05T07:42:04.321Z,23.8
2022-12-05T07:47:42.520Z,24.3
2022-12-05T07:53:22.297Z,24.2
2022-12-05T07:59:01.267Z,23.8
2022-12-05T08:04:43.588Z,23.6
2022-12-05T08:10:22.479Z,23.4
2022-12-05T08:16:05.903Z,23.3
2022-12-05T08:21:31.394Z,23.4
2022-12-05T08:27:09.240Z,23.7
2022-12-05T08:32:32.103Z,24.3
2022-12-05T08:38:13.775Z,24.1
2022-12-05T08:43:53.306Z,23.8
2022-12-05T08:49:36.208Z,23.6
2022-12-05T08:55:14.020Z,23.4
2022-12-05T09:01:01.849Z,23.3
2022-12-05T09:07:06.780Z,23.4
2022-12-05T09:12:44.997Z,24
2022-12-05T09:18:25.006Z,24.2
2022-12-05T09:24:06.711Z,23.8
2022-12-05T09:29:50.642Z,23.6
2022-12-05T09:35:28.228Z,23.4
2022-12-05T09:41:35.160Z,23.3
2022-12-05T09:47:14.394Z,23.3
2022-12-05T09:52:56.658Z,23.6
2022-12-05T09:58:40.759Z,24.1
2022-12-05T10:04:19.170Z,23.9
2022-12-05T10:10:04.505Z,23.6
2022-12-05T10:15:45.472Z,23.4
2022-12-05T10:21:24.247Z,23.3
2022-12-05T10:27:39.938Z,23.2
2022-12-05T10:33:26.207Z,23.3
2022-12-05T10:39:08.379Z,23.6
2022-12-05T10:44:47.734Z,24.1
2022-12-05T10:50:31.613Z,23.8
2022-12-05T10:56:45.173Z,23.6
2022-12-05T11:02:35.685Z,23.4
2022-12-05T11:08:14.424Z,23.2
2022-12-05T11:14:24.725Z,23.3
2022-12-05T11:20:09.885Z,23.8
2022-12-05T11:25:51.428Z,24.1
2022-12-05T11:31:33.852Z,23.8
2022-12-05T11:37:12.537Z,23.5
2022-12-05T11:42:42.218Z,23.3
2022-12-05T11:48:08.549Z,23.2
2022-12-05T11:53:47.978Z,23.1
2022-12-05T12:00:05.230Z,23.5
2022-12-05T12:05:47.153Z,24.1
2022-12-05T12:11:30.598Z,23.9
2022-12-05T12:17:15.261Z,23.6
2022-12-05T12:22:58.609Z,23.3
2022-12-05T12:28:38.810Z,23.2
2022-12-05T12:34:02.934Z,23.1
2022-12-05T12:39:42.243Z,23.4
2022-12-05T12:45:49.727Z,24
2022-12-05T12:51:34.679Z,23.9
2022-12-05T12:57:52.090Z,23.6
2022-12-05T13:03:30.548Z,23.4
2022-12-05T13:09:14.025Z,23.2
2022-12-05T13:14:40.469Z,23.2
2022-12-05T13:20:07.308Z,23.6
2022-12-05T13:25:50.580Z,24.3
2022-12-05T13:31:20.571Z,24.1
2022-12-05T13:37:03.438Z,23.8
2022-12-05T13:42:42.128Z,23.5
2022-12-05T13:48:36.106Z,23.3
2022-12-05T13:54:19.833Z,23.2
2022-12-05T14:00:03.661Z,23.6
2022-12-05T14:05:46.834Z,24.3
2022-12-05T14:11:24.541Z,23.9
2022-12-05T14:17:07.809Z,23.7
2022-12-05T14:22:52.565Z,23.4
2022-12-05T14:28:43.745Z,23.3
2022-12-05T14:34:22.202Z,23.3
2022-12-05T14:40:03.242Z,23.6
2022-12-05T14:45:48.333Z,24.3
2022-12-05T14:51:18.689Z,23.9
2022-12-05T14:56:48.339Z,23.7
2022-12-05T15:02:28.586Z,23.4
2022-12-05T15:08:12.168Z,23.3
2022-12-05T15:14:23.034Z,23.3
2022-12-05T15:20:01.968Z,23.9
2022-12-05T15:25:44.479Z,24.1
2022-12-05T15:31:38.229Z,23.8
2022-12-05T15:37:15.951Z,23.5
2022-12-05T15:43:03.623Z,23.4
2022-12-05T15:48:45.052Z,23.3
2022-12-05T15:54:27.669Z,23.5
2022-12-05T16:00:10.066Z,24.2
2022-12-05T16:05:53.250Z,23.9
2022-12-05T16:11:36.379Z,23.7
2022-12-05T16:17:49.763Z,23.4
2022-12-05T16:23:17.670Z,23.3
2022-12-05T16:28:55.468Z,23.3
2022-12-05T16:34:34.652Z,23.9
2022-12-05T16:40:12.815Z,24.1
2022-12-05T16:45:58.433Z,23.8
2022-12-05T16:51:42.622Z,23.6
2022-12-05T16:56:49.772Z,23.4
2022-12-05T17:02:14.611Z,23.2
2022-12-05T17:08:24.925Z,23.3
2022-12-05T17:14:05.480Z,23.8
2022-12-05T17:19:34.740Z,24.1
2022-12-05T17:25:12.952Z,23.8
2022-12-05T17:30:25.917Z,23.5
2022-12-05T17:36:04.085Z,23.3
2022-12-05T17:41:42.745Z,23.2
2022-12-05T17:47:24.989Z,23.3
2022-12-05T17:53:13.459Z,23.9
2022-12-05T17:58:35.317Z,24
2022-12-05T18:03:58.377Z,23.6
2022-12-05T18:09:25.060Z,23.4
2022-12-05T18:14:46.602Z,23.3
2022-12-05T18:19:44.121Z,23.2
2022-12-05T18:24:52.913Z,23.4
2022-12-05T18:30:33.903Z,23.9
2022-12-05T18:36:03.249Z,23.9
2022-12-05T18:41:40.961Z,23.6
2022-12-05T18:47:04.582Z,23.4
2022-12-05T18:53:14.063Z,23.2
2022-12-05T18:59:56.478Z,23.1
2022-12-05T19:05:38.958Z,23.6
2022-12-05T19:11:17.374Z,24.1
2022-12-05T19:16:25.721Z,23.8
2022-12-05T19:21:34.155Z,23.5
2022-12-05T19:27:15.895Z,23.3
2022-12-05T19:32:57.434Z,23.2
2022-12-05T19:38:05.673Z,23.3
2022-12-05T19:43:44.955Z,23.8
2022-12-05T19:49:13.755Z,24.1
2022-12-05T19:54:52.620Z,23.7
2022-12-05T20:00:34.663Z,23.4
2022-12-05T20:06:02.091Z,23.3
2022-12-05T20:11:25.725Z,23.2
2022-12-05T20:17:21.445Z,23.6
2022-12-05T20:22:44.777Z,24
2022-12-05T20:28:23.620Z,23.7
2022-12-05T20:34:01.717Z,23.4
2022-12-05T20:39:27.660Z,23.3
2022-12-05T20:45:08.033Z,23.2
2022-12-05T20:50:46.265Z,23.3
2022-12-05T20:56:24.334Z,23.9
2022-12-05T21:02:03.128Z,24
2022-12-05T21:07:47.772Z,23.6
2022-12-05T21:13:28.206Z,23.3
2022-12-05T21:19:07.074Z,23.1
2022-12-05T21:24:45.181Z,22.9
2022-12-05T21:30:23.082Z,22.8
2022-12-05T21:35:46.368Z,22.9
2022-12-05T21:41:09.876Z,23.2
2022-12-05T21:46:29.370Z,23.9
2022-12-05T21:52:07.560Z,24
2022-12-05T21:57:45.469Z,23.6
2022-12-05T22:03:14.192Z,23.4
2022-12-05T22:08:57.080Z,23.4
2022-12-05T22:14:34.850Z,24
2022-12-05T22:20:13.970Z,24.7
2022-12-05T22:25:52.464Z,24.6
2022-12-05T22:31:32.558Z,24
2022-12-05T22:37:01.050Z,23.6
2022-12-05T22:42:39.090Z,23.4
2022-12-05T22:48:17.066Z,23.4
2022-12-05T22:53:56.265Z,23.6
2022-12-05T22:59:34.573Z,24.2
2022-12-05T23:05:13.295Z,24.8
2022-12-05T23:10:55.330Z,24.6
2022-12-05T23:16:34.231Z,24.1
2022-12-05T23:22:12.880Z,23.8
2022-12-05T23:27:50.846Z,23.5
2022-12-05T23:33:29.134Z,23.4
2022-12-05T23:39:08.705Z,23.9
2022-12-05T23:44:47.127Z,24.6
2022-12-05T23:50:26.984Z,24.9
2022-12-05T23:56:04.289Z,24.5
